sensor_id;sensor_type;location;lat;lon;timestamp;P1;durP1;ratioP1;P2;durP2;ratioP2
26177;SDS011;13924;47.670;10.310;2023-03-04T00:00:38;218.5;;;66.9;;
26177;SDS011;13924;47.670;10.310;2023-03-04T00:15:36;181.2;;;61.0;;
26177;SDS011;13924;47.670;10.310;2023-03-04T00:30:37;168.6;;;58.0;;
26177;SDS011;13924;47.670;10.310;2023-03-04T00:45:39;177.8;;;56.9;;
26177;SDS011;13924;47.670;10.310;2023-03-04T01:00:38;155.4;;;54.7;;
26177;SDS011;13924;47.670;10.310;2023-03-04T01:15:39;170.4;;;52.8;;
26177;SDS011;13924;47.670;10.310;2023-03-04T01:30:39;157.2;;;50.7;;
26177;SDS011;13924;47.670;10.310;2023-03-04T01:45:40;148.3;;;51.0;;
26177;SDS011;13924;47.670;10.310;2023-03-04T02:00:41;141.9;;;49.2;;
26177;SDS011;13924;47.670;10.310;2023-03-04T02:01:36;140.8;;;53.7;;
26177;SDS011;13924;47.670;10.310;2023-03-04T02:27:30;122.1;;;44.2;;
26177;SDS011;13924;47.670;10.310;2023-03-04T02:30:41;122.1;;;45.0;;
26177;SDS011;13924;47.670;10.310;2023-03-04T02:45:43;133.2;;;44.2;;
26177;SDS011;13924;47.670;10.310;2023-03-04T03:00:43;151.0;;;49.2;;
26177;SDS011;13924;47.670;10.310;2023-03-04T03:15:46;161.3;;;51.0;;
26177;SDS011;13924;47.670;10.310;2023-03-04T03:30:44;166.3;;;51.8;;
26177;SDS011;13924;47.670;10.310;2023-03-04T03:45:45;171.7;;;55.4;;
26177;SDS011;13924;47.670;10.310;2023-03-04T04:00:46;195.1;;;55.0;;
26177;SDS011;13924;47.670;10.310;2023-03-04T04:15:47;636.9;;;59.8;;
26177;SDS011;13924;47.670;10.310;2023-03-04T04:30:50;259.4;;;62.8;;
26177;SDS011;13924;47.670;10.310;2023-03-04T04:45:51;326.3;;;70.1;;
26177;SDS011;13924;47.670;10.310;2023-03-04T05:00:48;251.9;;;66.0;;
26177;SDS011;13924;47.670;10.310;2023-03-04T05:15:52;270.3;;;68.8;;
26177;SDS011;13924;47.670;10.310;2023-03-04T05:30:49;237.6;;;63.6;;
26177;SDS011;13924;47.670;10.310;2023-03-04T05:45:50;255.8;;;64.2;;
26177;SDS011;13924;47.670;10.310;2023-03-04T05:50:38;270.0;;;70.6;;
26177;SDS011;13924;47.670;10.310;2023-03-04T06:05:36;238.2;;;64.4;;
26177;SDS011;13924;47.670;10.310;2023-03-04T06:20:39;229.6;;;62.8;;
26177;SDS011;13924;47.670;10.310;2023-03-04T06:35:39;232.4;;;65.3;;
26177;SDS011;13924;47.670;10.310;2023-03-04T06:50:39;185.0;;;54.7;;
26177;SDS011;13924;47.670;10.310;2023-03-04T07:05:39;203.8;;;58.2;;
26177;SDS011;13924;47.670;10.310;2023-03-04T07:20:39;184.4;;;60.4;;
26177;SDS011;13924;47.670;10.310;2023-03-04T07:35:40;152.5;;;53.1;;
26177;SDS011;13924;47.670;10.310;2023-03-04T07:50:43;150.3;;;46.6;;
26177;SDS011;13924;47.670;10.310;2023-03-04T08:05:42;134.7;;;44.7;;
26177;SDS011;13924;47.670;10.310;2023-03-04T08:20:43;109.1;;;39.2;;
26177;SDS011;13924;47.670;10.310;2023-03-04T08:35:43;101.9;;;36.2;;
26177;SDS011;13924;47.670;10.310;2023-03-04T08:50:44;113.4;;;40.2;;
26177;SDS011;13924;47.670;10.310;2023-03-04T09:05:49;95.6;;;39.2;;
26177;SDS011;13924;47.670;10.310;2023-03-04T09:20:47;113.5;;;47.6;;
26177;SDS011;13924;47.670;10.310;2023-03-04T09:35:45;102.3;;;42.6;;
26177;SDS011;13924;47.670;10.310;2023-03-04T09:50:48;112.1;;;43.2;;
26177;SDS011;13924;47.670;10.310;2023-03-04T10:05:52;105.3;;;42.2;;
26177;SDS011;13924;47.670;10.310;2023-03-04T10:20:50;93.5;;;40.9;;
26177;SDS011;13924;47.670;10.310;2023-03-04T10:35:50;93.5;;;41.4;;
26177;SDS011;13924;47.670;10.310;2023-03-04T10:50:50;98.1;;;44.9;;
26177;SDS011;13924;47.670;10.310;2023-03-04T11:05:50;95.5;;;43.8;;
26177;SDS011;13924;47.670;10.310;2023-03-04T11:20:58;97.2;;;43.0;;
26177;SDS011;13924;47.670;10.310;2023-03-04T11:36:16;85.9;;;41.9;;
26177;SDS011;13924;47.670;10.310;2023-03-04T11:50:52;95.5;;;41.7;;
26177;SDS011;13924;47.670;10.310;2023-03-04T12:05:58;72.6;;;37.0;;
26177;SDS011;13924;47.670;10.310;2023-03-04T12:21:07;86.0;;;41.0;;
26177;SDS011;13924;47.670;10.310;2023-03-04T12:36:05;80.7;;;39.0;;
26177;SDS011;13924;47.670;10.310;2023-03-04T12:50:57;77.3;;;35.9;;
26177;SDS011;13924;47.670;10.310;2023-03-04T13:06:01;78.6;;;35.1;;
26177;SDS011;13924;47.670;10.310;2023-03-04T13:21:27;72.0;;;32.0;;
26177;SDS011;13924;47.670;10.310;2023-03-04T13:35:57;71.7;;;32.3;;
26177;SDS011;13924;47.670;10.310;2023-03-04T13:50:57;74.0;;;31.0;;
26177;SDS011;13924;47.670;10.310;2023-03-04T14:06:15;58.8;;;32.0;;
26177;SDS011;13924;47.670;10.310;2023-03-04T14:21:01;56.7;;;29.1;;
26177;SDS011;13924;47.670;10.310;2023-03-04T14:35:59;63.8;;;32.5;;
26177;SDS011;13924;47.670;10.310;2023-03-04T14:51:01;65.2;;;31.2;;
26177;SDS011;13924;47.670;10.310;2023-03-04T15:06:14;60.2;;;30.1;;
26177;SDS011;13924;47.670;10.310;2023-03-04T15:21:02;62.2;;;32.4;;
26177;SDS011;13924;47.670;10.310;2023-03-04T15:36:04;71.3;;;31.9;;
26177;SDS011;13924;47.670;10.310;2023-03-04T15:51:01;76.2;;;33.8;;
26177;SDS011;13924;47.670;10.310;2023-03-04T16:06:02;87.6;;;39.3;;
26177;SDS011;13924;47.670;10.310;2023-03-04T16:21:02;76.8;;;32.4;;
26177;SDS011;13924;47.670;10.310;2023-03-04T16:36:07;93.4;;;39.6;;
26177;SDS011;13924;47.670;10.310;2023-03-04T16:51:08;82.7;;;36.1;;
26177;SDS011;13924;47.670;10.310;2023-03-04T17:06:04;100.1;;;39.7;;
26177;SDS011;13924;47.670;10.310;2023-03-04T17:21:07;75.4;;;35.4;;
26177;SDS011;13924;47.670;10.310;2023-03-04T17:36:06;72.6;;;33.3;;
26177;SDS011;13924;47.670;10.310;2023-03-04T17:51:08;75.1;;;32.1;;
26177;SDS011;13924;47.670;10.310;2023-03-04T18:06:12;74.9;;;32.4;;
26177;SDS011;13924;47.670;10.310;2023-03-04T18:21:08;65.1;;;29.3;;
26177;SDS011;13924;47.670;10.310;2023-03-04T18:36:09;63.9;;;28.0;;
26177;SDS011;13924;47.670;10.310;2023-03-04T18:51:09;64.5;;;28.7;;
26177;SDS011;13924;47.670;10.310;2023-03-04T19:06:21;61.3;;;28.5;;
26177;SDS011;13924;47.670;10.310;2023-03-04T19:21:21;71.4;;;28.8;;
26177;SDS011;13924;47.670;10.310;2023-03-04T19:36:13;72.2;;;31.3;;
26177;SDS011;13924;47.670;10.310;2023-03-04T19:51:13;71.0;;;29.8;;
26177;SDS011;13924;47.670;10.310;2023-03-04T20:06:12;71.2;;;30.8;;
26177;SDS011;13924;47.670;10.310;2023-03-04T20:21:12;78.4;;;33.7;;
26177;SDS011;13924;47.670;10.310;2023-03-04T20:36:13;79.4;;;33.2;;
26177;SDS011;13924;47.670;10.310;2023-03-04T20:51:14;85.6;;;35.6;;
26177;SDS011;13924;47.670;10.310;2023-03-04T21:06:15;89.6;;;35.5;;
26177;SDS011;13924;47.670;10.310;2023-03-04T21:36:17;94.3;;;37.9;;
26177;SDS011;13924;47.670;10.310;2023-03-04T21:51:18;107.4;;;40.0;;
26177;SDS011;13924;47.670;10.310;2023-03-04T22:06:17;98.7;;;37.7;;
26177;SDS011;13924;47.670;10.310;2023-03-04T22:21:19;99.5;;;37.7;;
26177;SDS011;13924;47.670;10.310;2023-03-04T22:36:19;103.9;;;41.0;;
26177;SDS011;13924;47.670;10.310;2023-03-04T22:51:19;106.3;;;39.1;;
26177;SDS011;13924;47.670;10.310;2023-03-04T23:00:42;103.3;;;39.7;;
26177;SDS011;13924;47.670;10.310;2023-03-04T23:15:44;121.3;;;43.7;;
26177;SDS011;13924;47.670;10.310;2023-03-04T23:30:34;105.5;;;39.7;;
26177;SDS011;13924;47.670;10.310;2023-03-04T23:45:36;111.8;;;40.6;;
